Time;durP1;ratioP1;P1;durP2;ratioP2;P2;SDS_P1;SDS_P2;PMS_P1;PMS_P2;Temp;Humidity;BMP_temperature;BMP_pressure;BME280_temperature;BME280_humidity;BME280_pressure;Samples;Min_cycle;Max_cycle;Signal;HPM_P1;HPM_P2
2021/09/07 00:07:56;;;;;;;2.10;0.68;;;;;;;;;;5007952;28;20072;-58
2021/09/07 00:10:22;;;;;;;3.83;0.80;;;;;;;;;;5006563;28;20161;-58
2021/09/07 00:12:48;;;;;;;2.90;1.00;;;;;;;;;;5008550;28;20037;-57
2021/09/07 00:15:15;;;;;;;2.75;0.60;;;;;;;;;;5007211;28;20046;-58
2021/09/07 00:17:41;;;;;;;2.00;0.60;;;;;;;;;;5006714;28;20054;-57
2021/09/07 00:20:07;;;;;;;2.28;0.60;;;;;;;;;;5008919;28;20102;-55
2021/09/07 00:22:34;;;;;;;4.85;1.20;;;;;;;;;;5007769;28;20038;-55
2021/09/07 00:24:59;;;;;;;2.25;0.70;;;;;;;;;;5006336;28;20042;-53
2021/09/07 00:27:25;;;;;;;2.13;0.70;;;;;;;;;;5008023;28;20146;-56
2021/09/07 00:29:51;;;;;;;2.28;0.70;;;;;;;;;;5006072;28;20029;-56
2021/09/07 00:32:17;;;;;;;2.25;0.70;;;;;;;;;;5007161;28;20045;-57
2021/09/07 00:34:43;;;;;;;2.42;0.60;;;;;;;;;;5006088;28;20066;-57
2021/09/07 00:37:09;;;;;;;2.97;0.77;;;;;;;;;;5006261;28;20149;-56
2021/09/07 00:39:35;;;;;;;2.20;0.70;;;;;;;;;;5004665;28;20034;-57
2021/09/07 00:42:01;;;;;;;2.67;0.80;;;;;;;;;;5007296;28;20042;-57
2021/09/07 00:44:27;;;;;;;1.70;0.60;;;;;;;;;;5007495;28;20093;-57
2021/09/07 00:46:57;;;;;;;3.88;0.90;;;;;;;;;;5007079;28;20050;-56
2021/09/07 00:49:24;;;;;;;2.17;0.80;;;;;;;;;;5006796;28;20437;-58
2021/09/07 00:51:50;;;;;;;11.02;1.05;;;;;;;;;;5006955;28;20104;-57
2021/09/07 00:54:16;;;;;;;7.50;0.95;;;;;;;;;;5012003;28;20538;-56
2021/09/07 00:56:42;;;;;;;2.88;0.85;;;;;;;;;;5004911;28;20093;-58
2021/09/07 00:59:09;;;;;;;2.85;0.63;;;;;;;;;;5007100;28;20049;-56
2021/09/07 01:01:35;;;;;;;1.75;0.60;;;;;;;;;;5006115;28;20132;-58
2021/09/07 01:04:01;;;;;;;2.67;0.70;;;;;;;;;;5005214;28;20750;-57
2021/09/07 01:06:28;;;;;;;2.90;0.85;;;;;;;;;;5004391;28;20052;-57
2021/09/07 01:08:54;;;;;;;2.47;0.80;;;;;;;;;;5005713;28;20572;-56
2021/09/07 01:11:20;;;;;;;2.22;0.75;;;;;;;;;;5005799;28;20049;-58
2021/09/07 01:13:46;;;;;;;1.33;0.50;;;;;;;;;;5006571;28;21003;-58
2021/09/07 01:16:12;;;;;;;2.40;0.70;;;;;;;;;;5004549;28;20045;-55
2021/09/07 01:18:38;;;;;;;3.33;0.90;;;;;;;;;;5005634;28;20104;-57
2021/09/07 01:21:09;;;;;;;4.85;0.80;;;;;;;;;;5007067;28;20057;-58
2021/09/07 01:23:35;;;;;;;3.55;0.70;;;;;;;;;;5005650;28;20509;-58
2021/09/07 01:26:01;;;;;;;3.00;0.55;;;;;;;;;;5005701;28;20048;-58
2021/09/07 01:28:29;;;;;;;5.65;1.10;;;;;;;;;;5005920;28;20037;-56
2021/09/07 01:30:55;;;;;;;2.45;0.68;;;;;;;;;;5004590;28;20034;-59
2021/09/07 01:33:21;;;;;;;2.63;0.77;;;;;;;;;;5003026;28;20048;-57
2021/09/07 01:35:47;;;;;;;5.60;2.30;;;;;;;;;;5003990;28;20050;-57
2021/09/07 01:38:13;;;;;;;6.40;1.13;;;;;;;;;;5006289;28;20030;-57
2021/09/07 01:40:39;;;;;;;5.22;0.93;;;;;;;;;;5003794;28;20072;-57
2021/09/07 01:43:04;;;;;;;2.45;0.70;;;;;;;;;;5005300;28;20049;-56
2021/09/07 01:45:30;;;;;;;3.15;0.90;;;;;;;;;;5004671;28;21004;-56
2021/09/07 01:47:56;;;;;;;3.60;0.88;;;;;;;;;;5005989;28;20125;-58
2021/09/07 01:50:22;;;;;;;4.55;1.15;;;;;;;;;;5004116;28;20050;-57
2021/09/07 01:52:48;;;;;;;3.38;0.82;;;;;;;;;;5006254;28;20052;-58
2021/09/07 01:55:13;;;;;;;2.92;0.90;;;;;;;;;;5007861;28;20041;-59
2021/09/07 01:57:39;;;;;;;4.40;0.93;;;;;;;;;;5008844;28;20046;-59
2021/09/07 02:00:06;;;;;;;2.42;0.80;;;;;;;;;;5009454;28;20822;-56
2021/09/07 02:02:31;;;;;;;2.80;1.00;;;;;;;;;;5006984;28;20149;-58
2021/09/07 02:04:57;;;;;;;2.83;0.80;;;;;;;;;;5005386;28;20975;-58
2021/09/07 02:07:23;;;;;;;4.95;1.10;;;;;;;;;;5006084;28;20034;-58
2021/09/07 02:09:51;;;;;;;3.15;0.80;;;;;;;;;;5006336;28;20475;-58
2021/09/07 02:12:16;;;;;;;3.35;1.20;;;;;;;;;;5007116;28;20588;-57
2021/09/07 02:14:42;;;;;;;4.47;1.17;;;;;;;;;;5003804;28;20082;-58
2021/09/07 02:17:08;;;;;;;8.55;3.50;;;;;;;;;;4993780;28;20542;-56
2021/09/07 02:19:34;;;;;;;3.50;1.20;;;;;;;;;;4987406;28;20042;-58
2021/09/07 02:22:00;;;;;;;3.13;1.02;;;;;;;;;;4986698;28;20038;-52
2021/09/07 02:24:26;;;;;;;3.55;1.00;;;;;;;;;;4989020;28;20037;-58
2021/09/07 02:26:51;;;;;;;5.93;1.30;;;;;;;;;;4990928;28;20066;-57
2021/09/07 02:29:17;;;;;;;6.10;1.40;;;;;;;;;;4986381;28;20035;-57
2021/09/07 02:31:43;;;;;;;5.45;1.52;;;;;;;;;;4984323;28;22009;-57
2021/09/07 02:34:09;;;;;;;5.53;1.10;;;;;;;;;;4984393;28;20189;-57
2021/09/07 02:36:37;;;;;;;5.85;1.50;;;;;;;;;;4984292;28;20626;-58
2021/09/07 02:39:03;;;;;;;5.00;1.45;;;;;;;;;;4984562;28;20071;-58
2021/09/07 02:41:28;;;;;;;3.35;1.27;;;;;;;;;;4985244;28;20048;-58
2021/09/07 02:43:54;;;;;;;7.18;1.42;;;;;;;;;;4984714;28;20042;-57
2021/09/07 02:46:20;;;;;;;5.85;1.65;;;;;;;;;;4982817;28;20108;-55
2021/09/07 02:48:46;;;;;;;6.88;1.50;;;;;;;;;;4983910;28;20066;-58
2021/09/07 02:51:12;;;;;;;8.30;1.75;;;;;;;;;;4985724;28;20146;-56
2021/09/07 02:53:37;;;;;;;8.73;1.45;;;;;;;;;;4984869;28;20049;-55
2021/09/07 02:56:03;;;;;;;6.65;1.50;;;;;;;;;;4984726;28;20062;-57
2021/09/07 02:58:29;;;;;;;9.73;1.92;;;;;;;;;;4984078;28;20038;-58
2021/09/07 03:00:55;;;;;;;3.40;1.20;;;;;;;;;;4982665;28;20038;-56
2021/09/07 03:03:22;;;;;;;4.80;1.38;;;;;;;;;;4985373;28;20037;-58
2021/09/07 03:05:48;;;;;;;9.48;1.60;;;;;;;;;;4986021;28;20041;-57
2021/09/07 03:08:14;;;;;;;5.82;1.33;;;;;;;;;;4985106;28;20038;-58
2021/09/07 03:10:40;;;;;;;5.03;2.13;;;;;;;;;;4985401;28;20653;-55
2021/09/07 03:13:06;;;;;;;7.10;2.03;;;;;;;;;;4983873;28;20999;-55
2021/09/07 03:15:32;;;;;;;5.72;2.28;;;;;;;;;;4982028;28;20046;-55
2021/09/07 03:17:58;;;;;;;8.63;1.95;;;;;;;;;;4984245;28;20129;-56
2021/09/07 03:20:24;;;;;;;8.32;2.15;;;;;;;;;;4984936;28;20045;-56
2021/09/07 03:22:50;;;;;;;7.80;1.70;;;;;;;;;;4984525;28;20041;-55
2021/09/07 03:25:15;;;;;;;4.93;1.13;;;;;;;;;;5007475;28;20038;-56
2021/09/07 03:27:41;;;;;;;7.38;1.60;;;;;;;;;;4983581;28;20053;-58
2021/09/07 03:30:07;;;;;;;3.20;1.13;;;;;;;;;;4983957;28;20160;-57
2021/09/07 03:32:34;;;;;;;3.97;1.00;;;;;;;;;;4983594;28;20046;-58
2021/09/07 03:35:00;;;;;;;4.82;1.20;;;;;;;;;;4983734;28;20372;-56
2021/09/07 03:37:25;;;;;;;3.42;1.25;;;;;;;;;;4985597;28;20065;-55
2021/09/07 03:39:51;;;;;;;6.90;1.50;;;;;;;;;;4985836;28;20034;-57
2021/09/07 03:42:17;;;;;;;5.00;1.80;;;;;;;;;;4987228;28;21129;-57
2021/09/07 03:44:43;;;;;;;3.75;1.08;;;;;;;;;;4987218;28;20038;-57
2021/09/07 03:47:08;;;;;;;3.95;1.30;;;;;;;;;;4988619;28;20113;-56
2021/09/07 03:49:34;;;;;;;6.32;1.45;;;;;;;;;;4987353;28;20029;-56
2021/09/07 03:52:00;;;;;;;6.72;1.33;;;;;;;;;;4988819;28;20038;-57
2021/09/07 03:54:26;;;;;;;8.68;1.55;;;;;;;;;;4988448;28;20133;-58
2021/09/07 03:56:52;;;;;;;5.22;1.45;;;;;;;;;;4994178;28;20129;-57
2021/09/07 03:59:18;;;;;;;6.57;1.60;;;;;;;;;;4991277;28;20403;-57
2021/09/07 04:01:44;;;;;;;7.28;1.42;;;;;;;;;;4986708;28;20038;-59
2021/09/07 04:04:13;;;;;;;10.20;1.70;;;;;;;;;;4988324;28;20564;-59
2021/09/07 04:06:38;;;;;;;4.35;1.70;;;;;;;;;;4998685;28;20049;-57
2021/09/07 04:09:04;;;;;;;5.60;1.50;;;;;;;;;;5000253;28;20040;-57
2021/09/07 04:11:30;;;;;;;7.93;1.80;;;;;;;;;;4987180;28;20049;-57
2021/09/07 04:13:56;;;;;;;7.32;2.00;;;;;;;;;;4987061;28;20089;-55
2021/09/07 04:16:22;;;;;;;5.78;1.73;;;;;;;;;;4985473;28;20050;-56
2021/09/07 04:18:48;;;;;;;4.30;1.50;;;;;;;;;;4986837;28;20394;-56
2021/09/07 04:21:13;;;;;;;11.43;2.15;;;;;;;;;;4987270;28;20092;-56
2021/09/07 04:23:39;;;;;;;7.40;1.45;;;;;;;;;;4987448;28;20068;-56
2021/09/07 04:26:05;;;;;;;6.13;1.52;;;;;;;;;;4986810;28;20034;-57
2021/09/07 04:28:31;;;;;;;5.13;1.40;;;;;;;;;;4986287;28;20045;-54
2021/09/07 04:30:57;;;;;;;4.13;1.60;;;;;;;;;;5003222;28;20037;-57
2021/09/07 04:33:23;;;;;;;7.45;1.60;;;;;;;;;;4996760;28;20124;-57
2021/09/07 04:35:48;;;;;;;6.70;1.55;;;;;;;;;;4986905;28;20045;-57
2021/09/07 04:38:14;;;;;;;4.75;1.60;;;;;;;;;;4986719;28;20092;-57
2021/09/07 04:40:40;;;;;;;4.78;1.50;;;;;;;;;;4991437;28;20558;-56
2021/09/07 04:43:06;;;;;;;6.78;1.48;;;;;;;;;;4985639;28;20034;-56
2021/09/07 04:45:32;;;;;;;6.65;1.50;;;;;;;;;;4985390;28;22680;-56
2021/09/07 04:47:57;;;;;;;7.88;1.60;;;;;;;;;;4993559;28;20116;-56
2021/09/07 04:50:23;;;;;;;4.13;1.25;;;;;;;;;;4987588;28;22084;-55
2021/09/07 04:52:49;;;;;;;7.90;1.55;;;;;;;;;;4987346;28;20034;-57
2021/09/07 04:55:15;;;;;;;5.38;1.38;;;;;;;;;;4985879;28;20056;-56
2021/09/07 04:57:41;;;;;;;6.07;1.80;;;;;;;;;;4987309;28;20049;-55
2021/09/07 05:00:07;;;;;;;8.35;1.50;;;;;;;;;;4986574;28;20025;-55
2021/09/07 05:02:34;;;;;;;7.30;1.40;;;;;;;;;;4986335;28;20050;-55
2021/09/07 05:05:02;;;;;;;4.00;1.40;;;;;;;;;;4986124;28;20254;-55
2021/09/07 05:07:28;;;;;;;7.88;1.58;;;;;;;;;;4988114;28;20483;-54
2021/09/07 05:09:55;;;;;;;5.13;1.52;;;;;;;;;;4986971;28;20049;-55
2021/09/07 05:12:21;;;;;;;4.50;1.50;;;;;;;;;;4987337;28;20049;-56
2021/09/07 05:14:47;;;;;;;6.10;1.67;;;;;;;;;;4986126;28;20054;-58
2021/09/07 05:17:13;;;;;;;8.52;1.45;;;;;;;;;;4986561;28;20557;-57
2021/09/07 05:19:39;;;;;;;4.55;1.20;;;;;;;;;;4985774;28;20042;-57
2021/09/07 05:22:05;;;;;;;10.63;1.60;;;;;;;;;;4986021;28;20046;-57
2021/09/07 05:24:30;;;;;;;5.13;1.30;;;;;;;;;;4984628;28;20042;-57
2021/09/07 05:26:57;;;;;;;6.60;1.40;;;;;;;;;;4985595;28;20057;-57
2021/09/07 05:29:22;;;;;;;7.75;1.73;;;;;;;;;;4985212;28;20425;-56
2021/09/07 05:31:48;;;;;;;8.80;1.80;;;;;;;;;;4986228;28;20042;-55
2021/09/07 05:34:14;;;;;;;7.68;1.75;;;;;;;;;;4985364;28;20178;-54
2021/09/07 05:36:40;;;;;;;8.57;1.70;;;;;;;;;;4988181;28;20043;-55
2021/09/07 05:39:06;;;;;;;6.38;1.65;;;;;;;;;;4986392;28;20317;-57
2021/09/07 05:41:32;;;;;;;6.80;1.70;;;;;;;;;;4985935;28;20042;-55
2021/09/07 05:43:57;;;;;;;5.32;1.77;;;;;;;;;;4986337;28;20041;-55
2021/09/07 05:46:23;;;;;;;8.10;1.58;;;;;;;;;;4983692;28;20066;-57
2021/09/07 05:48:49;;;;;;;6.68;1.50;;;;;;;;;;4985615;28;20046;-57
2021/09/07 05:51:15;;;;;;;7.25;1.60;;;;;;;;;;4985581;28;20096;-57
2021/09/07 05:53:41;;;;;;;7.93;1.60;;;;;;;;;;4984101;28;20049;-57
2021/09/07 05:56:11;;;;;;;8.15;1.75;;;;;;;;;;4985727;28;20074;-56
2021/09/07 05:58:38;;;;;;;6.97;1.45;;;;;;;;;;4986344;28;25311;-54
2021/09/07 06:01:03;;;;;;;7.70;1.58;;;;;;;;;;4984510;28;20415;-56
2021/09/07 06:03:29;;;;;;;7.35;1.50;;;;;;;;;;4984725;28;20081;-57
2021/09/07 06:05:55;;;;;;;7.70;1.60;;;;;;;;;;4984788;28;20046;-55
2021/09/07 06:08:21;;;;;;;10.88;1.77;;;;;;;;;;4983836;28;20050;-57
2021/09/07 06:10:47;;;;;;;5.78;1.70;;;;;;;;;;4984372;28;20058;-57
2021/09/07 06:13:12;;;;;;;4.75;1.38;;;;;;;;;;4987054;28;20046;-56
2021/09/07 06:15:41;;;;;;;6.20;1.38;;;;;;;;;;4984957;28;20109;-55
2021/09/07 06:18:07;;;;;;;3.60;1.23;;;;;;;;;;4986598;28;20049;-57
2021/09/07 06:20:33;;;;;;;5.00;1.55;;;;;;;;;;4984682;28;20034;-56
2021/09/07 06:22:58;;;;;;;7.28;1.40;;;;;;;;;;4991595;28;20046;-57
2021/09/07 06:25:24;;;;;;;7.18;1.77;;;;;;;;;;4984252;28;20767;-57
2021/09/07 06:27:50;;;;;;;7.72;1.50;;;;;;;;;;4985328;28;20084;-57
2021/09/07 06:30:16;;;;;;;5.55;1.60;;;;;;;;;;4987820;28;20041;-58
2021/09/07 06:32:42;;;;;;;5.47;1.15;;;;;;;;;;4992357;28;20094;-57
2021/09/07 06:35:09;;;;;;;8.80;1.50;;;;;;;;;;5022526;28;20549;-57
2021/09/07 06:37:35;;;;;;;5.35;1.40;;;;;;;;;;4986553;28;20051;-58
2021/09/07 06:40:02;;;;;;;5.03;1.65;;;;;;;;;;4985202;28;20053;-57
2021/09/07 06:42:28;;;;;;;9.57;1.58;;;;;;;;;;4984473;28;20044;-57
2021/09/07 06:44:54;;;;;;;7.50;1.58;;;;;;;;;;4985135;28;20049;-56
2021/09/07 06:47:20;;;;;;;4.60;1.48;;;;;;;;;;4986428;28;20077;-56
2021/09/07 06:49:45;;;;;;;6.82;1.58;;;;;;;;;;4985751;28;20073;-56
2021/09/07 06:52:11;;;;;;;11.45;1.35;;;;;;;;;;4986047;28;20054;-54
2021/09/07 06:54:37;;;;;;;7.13;1.50;;;;;;;;;;4984834;28;20077;-57
2021/09/07 06:57:03;;;;;;;6.20;1.48;;;;;;;;;;4984944;28;20046;-56
2021/09/07 06:59:29;;;;;;;7.63;1.70;;;;;;;;;;4985475;28;20070;-57
2021/09/07 07:01:54;;;;;;;5.47;1.27;;;;;;;;;;4986098;28;20035;-56
2021/09/07 07:04:20;;;;;;;5.25;1.55;;;;;;;;;;4987258;28;20069;-55
2021/09/07 07:06:46;;;;;;;4.30;1.33;;;;;;;;;;4986913;28;20068;-56
2021/09/07 07:09:12;;;;;;;9.07;1.50;;;;;;;;;;4985577;28;20030;-56
2021/09/07 07:11:38;;;;;;;4.00;1.38;;;;;;;;;;4985850;28;20142;-58
2021/09/07 07:14:03;;;;;;;7.22;1.17;;;;;;;;;;4986585;28;20038;-58
2021/09/07 07:16:29;;;;;;;6.30;1.50;;;;;;;;;;4989037;28;20053;-58
2021/09/07 07:18:55;;;;;;;8.45;1.50;;;;;;;;;;4991024;28;20141;-57
2021/09/07 07:21:22;;;;;;;5.75;1.60;;;;;;;;;;4988258;28;20038;-57
2021/09/07 07:23:48;;;;;;;4.60;1.25;;;;;;;;;;4990162;28;20041;-57
2021/09/07 07:26:14;;;;;;;6.47;1.35;;;;;;;;;;4989307;28;20042;-56
2021/09/07 07:28:39;;;;;;;6.90;1.55;;;;;;;;;;4988829;28;20076;-57
2021/09/07 07:31:05;;;;;;;8.63;1.50;;;;;;;;;;4989173;28;20038;-56
2021/09/07 07:33:31;;;;;;;7.50;1.38;;;;;;;;;;4989408;28;20085;-54
2021/09/07 07:35:57;;;;;;;9.05;1.73;;;;;;;;;;4990918;28;20050;-57
2021/09/07 07:38:23;;;;;;;5.57;1.50;;;;;;;;;;4991644;28;20507;-55
2021/09/07 07:40:49;;;;;;;7.03;1.20;;;;;;;;;;4990317;28;20092;-54
2021/09/07 07:43:15;;;;;;;6.20;1.40;;;;;;;;;;4991492;28;20045;-56
2021/09/07 07:45:41;;;;;;;7.82;1.58;;;;;;;;;;4988851;28;20042;-55
2021/09/07 07:48:07;;;;;;;3.80;1.40;;;;;;;;;;4992755;28;20038;-54
2021/09/07 07:50:33;;;;;;;5.18;1.55;;;;;;;;;;4990746;28;20168;-57
2021/09/07 07:53:02;;;;;;;5.43;1.80;;;;;;;;;;4993386;28;20062;-57
2021/09/07 07:55:28;;;;;;;4.32;1.35;;;;;;;;;;4991300;28;20045;-57
2021/09/07 07:57:54;;;;;;;11.00;1.63;;;;;;;;;;4992366;28;20133;-57
2021/09/07 08:00:20;;;;;;;4.10;1.83;;;;;;;;;;4993280;28;20582;-56
2021/09/07 08:02:46;;;;;;;4.45;1.30;;;;;;;;;;4992317;28;20379;-57
2021/09/07 08:05:11;;;;;;;10.82;1.80;;;;;;;;;;4989796;28;20038;-56
2021/09/07 08:07:37;;;;;;;4.82;1.48;;;;;;;;;;4988817;28;20042;-56
2021/09/07 08:10:03;;;;;;;7.88;1.63;;;;;;;;;;4988193;28;20120;-56
2021/09/07 08:12:29;;;;;;;7.75;1.63;;;;;;;;;;4988804;28;20039;-56
2021/09/07 08:14:55;;;;;;;9.07;1.85;;;;;;;;;;4989088;28;20717;-58
2021/09/07 08:17:21;;;;;;;5.45;1.63;;;;;;;;;;4988643;28;20129;-54
2021/09/07 08:19:46;;;;;;;5.28;1.30;;;;;;;;;;4987823;28;20100;-55
2021/09/07 08:22:14;;;;;;;6.03;1.48;;;;;;;;;;4989900;28;21344;-55
2021/09/07 08:24:40;;;;;;;18.05;1.45;;;;;;;;;;4988242;28;20034;-56
2021/09/07 08:27:06;;;;;;;5.93;1.30;;;;;;;;;;4986776;28;20113;-56
2021/09/07 08:29:32;;;;;;;7.63;1.35;;;;;;;;;;4986356;28;20042;-55
2021/09/07 08:31:57;;;;;;;7.22;1.48;;;;;;;;;;4988556;28;20499;-58
2021/09/07 08:34:24;;;;;;;3.92;1.00;;;;;;;;;;4986210;28;20057;-56
2021/09/07 08:36:49;;;;;;;4.38;1.33;;;;;;;;;;4988969;28;20054;-57
2021/09/07 08:39:15;;;;;;;4.50;0.90;;;;;;;;;;4987418;28;20045;-56
2021/09/07 08:41:42;;;;;;;5.93;1.05;;;;;;;;;;4986249;28;20038;-58
2021/09/07 08:44:08;;;;;;;4.97;1.33;;;;;;;;;;4987213;28;20393;-55
2021/09/07 08:46:34;;;;;;;7.82;1.60;;;;;;;;;;4986555;28;20045;-55
2021/09/07 08:49:00;;;;;;;7.60;1.40;;;;;;;;;;4989176;28;20491;-56
2021/09/07 08:51:26;;;;;;;6.32;1.40;;;;;;;;;;4987226;28;20046;-57
2021/09/07 08:53:53;;;;;;;7.90;1.50;;;;;;;;;;4987676;28;20057;-56
2021/09/07 08:56:20;;;;;;;5.45;1.17;;;;;;;;;;4988331;28;20124;-56
2021/09/07 08:58:45;;;;;;;5.03;1.00;;;;;;;;;;4986408;28;20069;-55
2021/09/07 09:01:12;;;;;;;6.72;1.10;;;;;;;;;;5012534;28;20141;-56
2021/09/07 09:03:42;;;;;;;5.20;1.10;;;;;;;;;;4987625;28;20093;-56
2021/09/07 09:06:08;;;;;;;4.00;0.93;;;;;;;;;;4990158;28;20478;-56
2021/09/07 09:08:35;;;;;;;5.68;1.30;;;;;;;;;;4988842;28;21052;-54
2021/09/07 09:11:05;;;;;;;5.18;1.17;;;;;;;;;;4989944;28;20077;-56
2021/09/07 09:13:41;;;;;;;7.78;1.10;;;;;;;;;;4990099;28;20465;-55
2021/09/07 09:16:07;;;;;;;4.20;1.40;;;;;;;;;;4990588;28;20069;-55
2021/09/07 09:18:33;;;;;;;4.13;1.02;;;;;;;;;;4992562;28;20034;-56
2021/09/07 09:21:18;;;;;;;5.93;1.40;;;;;;;;;;4990853;28;20113;-57
2021/09/07 09:23:46;;;;;;;7.13;1.45;;;;;;;;;;4997897;28;20140;-56
2021/09/07 09:26:12;;;;;;;9.55;1.70;;;;;;;;;;4989007;28;20046;-53
2021/09/07 09:28:38;;;;;;;3.78;1.30;;;;;;;;;;4989742;28;20400;-54
2021/09/07 09:31:05;;;;;;;9.95;1.10;;;;;;;;;;4987766;28;20034;-57
2021/09/07 09:33:34;;;;;;;5.70;1.33;;;;;;;;;;4987798;28;20834;-57
2021/09/07 09:36:01;;;;;;;6.00;1.48;;;;;;;;;;4987173;28;20050;-57
2021/09/07 09:38:32;;;;;;;9.07;1.30;;;;;;;;;;4987867;28;20065;-56
2021/09/07 09:40:59;;;;;;;5.50;1.25;;;;;;;;;;4987891;28;20041;-58
2021/09/07 09:43:32;;;;;;;4.70;1.20;;;;;;;;;;4987979;28;20564;-57
2021/09/07 09:46:14;;;;;;;3.35;1.00;;;;;;;;;;4987615;28;20061;-57
2021/09/07 09:48:40;;;;;;;4.60;1.30;;;;;;;;;;4985033;28;20057;-56
2021/09/07 09:51:06;;;;;;;3.10;1.20;;;;;;;;;;4988388;28;20134;-56
2021/09/07 09:53:33;;;;;;;3.72;1.10;;;;;;;;;;4986692;28;20350;-53
2021/09/07 09:56:00;;;;;;;3.80;1.40;;;;;;;;;;4986246;28;20054;-57
2021/09/07 09:58:26;;;;;;;4.20;1.48;;;;;;;;;;4986865;28;20069;-55
2021/09/07 10:00:52;;;;;;;4.32;1.40;;;;;;;;;;4987134;28;20045;-55
2021/09/07 10:03:18;;;;;;;3.75;1.05;;;;;;;;;;4986104;28;20034;-57
2021/09/07 10:05:45;;;;;;;3.50;1.10;;;;;;;;;;4985900;28;20030;-54
2021/09/07 10:08:14;;;;;;;3.17;1.20;;;;;;;;;;4987764;28;20126;-57
2021/09/07 10:10:43;;;;;;;3.33;1.23;;;;;;;;;;4987846;28;20041;-54
2021/09/07 10:13:12;;;;;;;7.43;1.25;;;;;;;;;;4988379;28;20054;-56
2021/09/07 10:15:44;;;;;;;8.20;1.50;;;;;;;;;;4984946;28;20061;-56
2021/09/07 10:24:04;;;;;;;3.17;1.08;;;;;;;;;;4992831;28;19927;-56
2021/09/07 10:26:39;;;;;;;7.32;1.10;;;;;;;;;;5006095;28;20390;-56
2021/09/07 10:29:08;;;;;;;5.50;1.02;;;;;;;;;;4997967;28;20042;-57
2021/09/07 10:31:41;;;;;;;5.03;1.20;;;;;;;;;;4989420;28;20065;-56
2021/09/07 10:34:07;;;;;;;6.70;1.13;;;;;;;;;;4987987;28;20077;-56
2021/09/07 10:36:36;;;;;;;3.28;1.20;;;;;;;;;;4987727;28;20077;-57
2021/09/07 10:39:03;;;;;;;3.45;1.25;;;;;;;;;;4987199;28;20117;-57
2021/09/07 10:41:29;;;;;;;2.67;0.95;;;;;;;;;;4986568;28;20042;-57
2021/09/07 10:43:59;;;;;;;3.35;0.90;;;;;;;;;;4985392;28;20332;-56
2021/09/07 10:46:43;;;;;;;4.30;1.20;;;;;;;;;;4986642;28;20046;-57
2021/09/07 10:49:20;;;;;;;3.47;1.00;;;;;;;;;;4988695;28;20042;-56
2021/09/07 10:52:04;;;;;;;8.45;1.10;;;;;;;;;;5002162;28;20042;-57
2021/09/07 10:54:31;;;;;;;2.72;0.95;;;;;;;;;;4990400;28;20091;-55
2021/09/07 10:56:59;;;;;;;3.05;1.00;;;;;;;;;;4989977;28;20050;-56
2021/09/07 11:00:01;;;;;;;4.07;1.10;;;;;;;;;;4987535;28;20050;-56
2021/09/07 11:02:30;;;;;;;5.35;1.20;;;;;;;;;;4995976;28;20045;-58
2021/09/07 11:04:58;;;;;;;6.22;1.10;;;;;;;;;;4993712;28;20159;-56
2021/09/07 11:07:33;;;;;;;2.38;0.80;;;;;;;;;;4989444;28;20578;-56
2021/09/07 11:09:59;;;;;;;3.63;0.82;;;;;;;;;;4990133;28;20061;-55
2021/09/07 11:12:25;;;;;;;2.78;0.95;;;;;;;;;;4990387;28;20037;-54
2021/09/07 11:15:04;;;;;;;3.72;0.90;;;;;;;;;;4988226;28;20487;-56
2021/09/07 11:17:30;;;;;;;3.38;1.10;;;;;;;;;;4989964;28;20062;-55
2021/09/07 11:20:00;;;;;;;3.42;1.00;;;;;;;;;;4991281;28;20798;-55
2021/09/07 11:22:30;;;;;;;3.95;1.10;;;;;;;;;;4990965;28;20069;-56
2021/09/07 11:25:06;;;;;;;4.75;1.10;;;;;;;;;;4990530;28;20039;-57
2021/09/07 11:27:51;;;;;;;3.45;1.13;;;;;;;;;;4991718;28;20686;-55
2021/09/07 11:30:20;;;;;;;4.07;1.00;;;;;;;;;;4997088;28;20030;-57
2021/09/07 11:32:46;;;;;;;3.90;0.88;;;;;;;;;;4995423;28;20041;-57
2021/09/07 11:35:12;;;;;;;7.75;1.33;;;;;;;;;;4994306;28;20053;-57
2021/09/07 11:37:38;;;;;;;7.68;1.00;;;;;;;;;;4993548;28;20060;-54
2021/09/07 11:40:16;;;;;;;9.77;0.90;;;;;;;;;;4991342;28;20112;-55
2021/09/07 11:42:49;;;;;;;2.67;1.00;;;;;;;;;;4996594;28;20038;-54
2021/09/07 11:45:31;;;;;;;3.53;1.00;;;;;;;;;;4990029;28;20050;-55
2021/09/07 11:47:57;;;;;;;3.03;0.88;;;;;;;;;;4989330;28;20038;-55
2021/09/07 11:50:24;;;;;;;4.00;1.00;;;;;;;;;;4988538;28;20503;-53
2021/09/07 11:52:51;;;;;;;3.35;1.13;;;;;;;;;;4987665;28;20391;-56
2021/09/07 11:55:35;;;;;;;2.92;0.90;;;;;;;;;;4989968;28;20513;-56
2021/09/07 11:58:01;;;;;;;4.00;1.00;;;;;;;;;;4988991;28;20119;-56
2021/09/07 12:00:27;;;;;;;3.45;1.15;;;;;;;;;;4987951;28;20407;-57
2021/09/07 12:03:09;;;;;;;2.83;1.05;;;;;;;;;;4986370;28;20042;-56
2021/09/07 12:05:53;;;;;;;3.22;1.17;;;;;;;;;;4987109;28;20506;-58
2021/09/07 12:08:19;;;;;;;3.95;1.20;;;;;;;;;;4988468;28;20175;-58
2021/09/07 12:10:54;;;;;;;4.35;1.20;;;;;;;;;;4988857;28;20045;-55
2021/09/07 12:13:21;;;;;;;3.50;1.25;;;;;;;;;;4986046;28;20031;-54
2021/09/07 12:15:47;;;;;;;3.38;1.10;;;;;;;;;;4989039;28;20050;-58
2021/09/07 12:18:30;;;;;;;7.13;1.45;;;;;;;;;;4989020;28;20052;-58
2021/09/07 12:21:11;;;;;;;4.47;1.20;;;;;;;;;;4990441;28;20070;-56
2021/09/07 12:23:38;;;;;;;3.72;1.10;;;;;;;;;;4989104;28;20088;-53
2021/09/07 12:26:04;;;;;;;3.03;1.02;;;;;;;;;;4988840;28;20042;-56
2021/09/07 12:28:31;;;;;;;3.50;1.23;;;;;;;;;;4990055;28;20037;-53
2021/09/07 12:31:12;;;;;;;4.35;1.10;;;;;;;;;;4991428;28;20167;-55
2021/09/07 12:33:43;;;;;;;9.48;1.48;;;;;;;;;;4993287;28;20041;-57
2021/09/07 12:36:09;;;;;;;4.13;1.30;;;;;;;;;;4994923;28;20050;-57
2021/09/07 12:38:35;;;;;;;3.28;0.93;;;;;;;;;;4994473;28;20034;-57
2021/09/07 12:41:19;;;;;;;5.15;1.10;;;;;;;;;;4989832;28;20407;-56
2021/09/07 12:43:47;;;;;;;3.25;1.05;;;;;;;;;;5021874;28;20128;-57
2021/09/07 12:46:14;;;;;;;3.20;1.20;;;;;;;;;;4995825;28;20037;-53
2021/09/07 12:48:41;;;;;;;9.93;1.40;;;;;;;;;;5008716;28;20046;-57
2021/09/07 12:51:08;;;;;;;2.65;0.95;;;;;;;;;;4992066;28;20088;-56
2021/09/07 12:53:47;;;;;;;3.45;1.10;;;;;;;;;;4997897;28;20056;-55
2021/09/07 12:56:17;;;;;;;7.95;0.90;;;;;;;;;;4988267;28;20061;-55
2021/09/07 12:58:50;;;;;;;3.90;1.30;;;;;;;;;;4996014;28;21883;-55
2021/09/07 13:01:16;;;;;;;3.50;1.08;;;;;;;;;;5018430;28;20069;-57
2021/09/07 13:03:42;;;;;;;4.75;1.20;;;;;;;;;;5018905;28;20589;-56
2021/09/07 13:06:09;;;;;;;3.38;1.00;;;;;;;;;;4987538;28;20043;-56
2021/09/07 13:08:35;;;;;;;5.30;1.15;;;;;;;;;;4987240;28;20035;-55
2021/09/07 13:11:00;;;;;;;6.72;0.95;;;;;;;;;;4990465;28;20049;-57
2021/09/07 13:13:26;;;;;;;3.47;1.20;;;;;;;;;;4985532;28;20072;-55
2021/09/07 13:15:52;;;;;;;7.75;1.42;;;;;;;;;;4986744;28;20586;-57
2021/09/07 13:18:18;;;;;;;3.40;0.98;;;;;;;;;;4987888;28;20042;-58
2021/09/07 13:20:44;;;;;;;6.18;1.17;;;;;;;;;;4988358;28;20046;-57
2021/09/07 13:23:11;;;;;;;7.25;1.52;;;;;;;;;;4987376;28;20395;-57
2021/09/07 13:25:37;;;;;;;3.90;1.20;;;;;;;;;;4986381;28;20415;-58
2021/09/07 13:28:03;;;;;;;6.47;1.33;;;;;;;;;;4988883;28;20045;-55
2021/09/07 13:30:30;;;;;;;9.75;1.60;;;;;;;;;;4987350;28;20514;-56
2021/09/07 13:32:57;;;;;;;6.15;1.50;;;;;;;;;;4986507;28;20388;-57
2021/09/07 13:35:23;;;;;;;3.80;1.30;;;;;;;;;;4986616;28;20039;-57
2021/09/07 13:37:49;;;;;;;6.55;1.52;;;;;;;;;;4986879;28;20054;-56
2021/09/07 13:40:15;;;;;;;8.32;1.60;;;;;;;;;;4986089;28;20040;-56
2021/09/07 13:42:41;;;;;;;4.88;1.35;;;;;;;;;;4986328;28;20046;-56
2021/09/07 13:45:07;;;;;;;8.63;2.22;;;;;;;;;;4986921;28;20045;-57
2021/09/07 13:47:33;;;;;;;10.15;1.85;;;;;;;;;;4985972;28;20042;-57
2021/09/07 13:49:59;;;;;;;5.47;1.33;;;;;;;;;;4987565;28;20113;-56
2021/09/07 13:52:25;;;;;;;7.82;1.45;;;;;;;;;;4987118;28;20034;-56
2021/09/07 13:54:50;;;;;;;7.32;1.23;;;;;;;;;;4987689;28;20113;-55
2021/09/07 13:57:16;;;;;;;3.70;1.38;;;;;;;;;;4988017;28;20487;-54
2021/09/07 13:59:42;;;;;;;11.48;1.63;;;;;;;;;;4987630;28;20189;-55
2021/09/07 14:02:08;;;;;;;11.07;1.95;;;;;;;;;;4986100;28;20140;-56
2021/09/07 14:04:34;;;;;;;13.38;1.70;;;;;;;;;;5001130;28;20041;-56
2021/09/07 14:07:00;;;;;;;8.85;1.65;;;;;;;;;;4985385;28;20027;-55
2021/09/07 14:09:25;;;;;;;6.10;1.77;;;;;;;;;;4985883;28;20081;-55
2021/09/07 14:11:51;;;;;;;9.63;1.80;;;;;;;;;;4984940;28;20042;-55
2021/09/07 14:14:17;;;;;;;10.00;1.70;;;;;;;;;;4986000;28;20042;-57
2021/09/07 14:16:43;;;;;;;10.80;1.60;;;;;;;;;;4986875;28;20844;-57
2021/09/07 14:19:09;;;;;;;5.05;1.60;;;;;;;;;;4987233;28;20037;-57
2021/09/07 14:21:35;;;;;;;9.23;1.63;;;;;;;;;;4984306;28;20038;-56
2021/09/07 14:24:01;;;;;;;4.05;1.25;;;;;;;;;;4990535;28;20046;-56
2021/09/07 14:26:26;;;;;;;4.15;1.30;;;;;;;;;;4986337;28;20097;-57
2021/09/07 14:28:52;;;;;;;7.97;1.50;;;;;;;;;;4987658;28;20049;-55
2021/09/07 14:31:18;;;;;;;9.18;1.45;;;;;;;;;;4987747;28;20046;-57
2021/09/07 14:33:44;;;;;;;8.93;1.38;;;;;;;;;;4990431;28;20042;-52
2021/09/07 14:36:10;;;;;;;7.07;1.13;;;;;;;;;;4988186;28;20034;-55
2021/09/07 14:38:35;;;;;;;3.42;1.17;;;;;;;;;;4989943;28;20046;-58
2021/09/07 14:41:01;;;;;;;4.03;1.30;;;;;;;;;;4986990;28;20079;-58
2021/09/07 14:43:27;;;;;;;5.65;1.10;;;;;;;;;;4988053;28;20184;-56
2021/09/07 14:45:53;;;;;;;5.63;1.23;;;;;;;;;;4987930;28;20038;-56
2021/09/07 14:48:19;;;;;;;7.07;1.33;;;;;;;;;;4988472;28;20046;-57
2021/09/07 14:50:46;;;;;;;7.53;1.30;;;;;;;;;;4988729;28;20041;-57
2021/09/07 14:53:12;;;;;;;3.83;1.30;;;;;;;;;;4988621;28;20058;-55
2021/09/07 14:55:38;;;;;;;4.65;1.20;;;;;;;;;;4991475;28;20120;-55